Creek Data

    Home     View Charts     View Raw Data     Messages

ID Distance Battery Voltage Battery Current Internal Temp Internal Humidity External Temp Solar Input rssi snr Time Stamp Record
34902 15.1 3.98 -5 46 40 46 0 -77 8 03/13/2025 09:00 PM 16649
34901 15.1 3.98 -5 46 41 47 0 -78 8 03/13/2025 08:45 PM 16648
34900 15.1 3.98 -5 46 41 47 0 -78 8 03/13/2025 08:30 PM 16647
34899 15.1 3.98 -5 46 42 47 0 -79 8 03/13/2025 08:15 PM 16646
34898 15.1 3.98 -5 47 44 48 0 -78 9 03/13/2025 07:45 PM 16644
34897 15.1 4.04 -5 48 45 48 0.1 -77 8 03/13/2025 07:30 PM 16643
34896 15.1 3.98 -8 50 45 49 3 -78 8 03/13/2025 07:15 PM 16642
34895 15.1 4.00 0 54 44 50 4.5 -78 8 03/13/2025 07:00 PM 16641
34894 15.2 4.09 0 57 42 53 4.5 -80 8 03/13/2025 06:45 PM 16640
34893 15.2 4.09 36 60 42 54 4.5 -79 7 03/13/2025 06:30 PM 16639
34892 15.2 4.07 5 62 41 55 5.1 -78 7 03/13/2025 06:15 PM 16638
34891 15.3 4.03 5 63 41 56 5.1 -80 8 03/13/2025 06:00 PM 16637
34890 15.2 4.03 0 65 40 57 5.1 -79 8 03/13/2025 05:45 PM 16636
34889 15.3 4.03 0 66 39 58 5.1 -80 8 03/13/2025 05:30 PM 16635
34888 15.3 4.03 5 67 39 60 5.1 -78 8 03/13/2025 05:15 PM 16634
34887 15.3 4.03 0 68 38 59 5.1 -80 7 03/13/2025 05:00 PM 16633
34886 15.3 4.04 5 69 37 60 5.1 -82 7 03/13/2025 04:45 PM 16632
34885 15.3 4.03 5 69 36 62 5.1 -80 7 03/13/2025 04:30 PM 16631
34884 15.3 4.03 5 68 36 61 5.1 -79 8 03/13/2025 04:15 PM 16630
34883 15.2 4.07 5 63 38 57 5.1 -82 8 03/13/2025 04:00 PM 16629
34882 15.3 4.13 5 62 39 57 5.1 -78 7 03/13/2025 03:45 PM 16628
34881 15.2 4.03 5 62 39 58 5.1 -81 8 03/13/2025 03:30 PM 16627
34880 15.2 4.15 5 61 40 56 5.1 -79 7 03/13/2025 03:15 PM 16626
34879 15.2 4.03 5 60 41 56 5.1 -80 7 03/13/2025 03:00 PM 16625
34878 15.3 4.03 5 64 38 55 5.1 -78 8 03/13/2025 02:45 PM 16624